Aviation Digital Data Service (ADDS)

Output produced by METARs form (1653 UTC 16 June 2019)
found at http://www.aviationweather.gov/metar/data/
 
Forecast for: CYOW (OTTAWA INTL , ON, CA)
Text: TAF CYOW 161439Z 1615/1712 36005KT P6SM FEW015
Forecast period: 1500 UTC 16 June 2019 to 0100 UTC 17 June 2019
Forecast type: FROM: standard forecast or significant change
Winds: from the N (360 degrees) at 6 MPH (5 knots; 2.6 m/s)
Visibility: 6 or more miles 10+ km)
Ceiling: at least 12,000 feet AGL
Clouds: few clouds at 1500 feet AGL
Weather: no significant weather forecast for this period
Text: FM170100 35006KT P6SM SCT200
Forecast period: 0100 to 0700 UTC 17 June 2019
Forecast type: FROM: standard forecast or significant change
Winds: from the N (350 degrees) at 7 MPH (6 knots; 3.1 m/s)
Visibility: 6 or more miles 10+ km)
Ceiling: at least 12,000 feet AGL
Clouds: scattered clouds at 20000 feet AGL
Weather: no significant weather forecast for this period
Text: FM170700 31005KT P6SM SCT040 RMK NXT FCST BY 161800Z
Forecast period: 0700 to 1200 UTC 17 June 2019
Forecast type: FROM: standard forecast or significant change
Winds: from the NW (310 degrees) at 6 MPH (5 knots; 2.6 m/s)
Visibility: 6 or more miles 10+ km)
Ceiling: at least 12,000 feet AGL
Clouds: scattered clouds at 4000 feet AGL
Weather: no significant weather forecast for this period